createdAt,value
2022-09-22T00:02:01.838Z,70.25
2022-09-22T00:04:31.431Z,69.75
2022-09-22T00:07:01.208Z,68.00
2022-09-22T00:09:30.679Z,72.00
2022-09-22T00:12:00.098Z,74.50
2022-09-22T00:14:29.919Z,69.75
2022-09-22T00:17:00.430Z,74.25
2022-09-22T00:19:34.140Z,73.25
2022-09-22T00:22:03.985Z,69.25
2022-09-22T00:24:33.728Z,72.50
2022-09-22T00:27:03.249Z,71.75
2022-09-22T00:29:32.962Z,69.25
2022-09-22T00:32:07.202Z,69.25
2022-09-22T00:34:37.631Z,73.25
2022-09-22T00:37:07.071Z,75.00
2022-09-22T00:39:36.468Z,73.75
2022-09-22T00:42:09.018Z,77.25
2022-09-22T00:44:40.393Z,69.75
2022-09-22T00:47:31.428Z,72.75
2022-09-22T00:50:19.232Z,72.25
2022-09-22T00:52:51.057Z,70.75
2022-09-22T00:55:24.680Z,71.25
2022-09-22T00:57:55.814Z,69.75
2022-09-22T01:00:25.539Z,71.75
2022-09-22T01:02:58.530Z,70.50
2022-09-22T01:05:29.421Z,65.50
2022-09-22T01:08:00.002Z,68.00
2022-09-22T01:10:29.960Z,66.75
2022-09-22T01:13:05.784Z,67.25
2022-09-22T01:15:53.947Z,66.50
2022-09-22T01:18:50.324Z,64.25
2022-09-22T01:21:29.365Z,64.25
2022-09-22T01:24:16.301Z,66.50
2022-09-22T01:26:58.951Z,62.25
2022-09-22T01:29:46.961Z,62.25
2022-09-22T01:32:19.866Z,64.25
2022-09-22T01:34:59.547Z,58.00
2022-09-22T01:37:37.558Z,64.00
2022-09-22T01:40:12.248Z,63.00
2022-09-22T01:43:08.406Z,61.25
2022-09-22T01:45:43.676Z,60.00
2022-09-22T01:48:22.819Z,62.00
2022-09-22T01:51:12.261Z,59.25
2022-09-22T01:53:45.486Z,58.75
2022-09-22T01:56:17.043Z,56.50
2022-09-22T01:58:53.466Z,60.50
2022-09-22T02:01:26.861Z,58.75
2022-09-22T02:04:00.847Z,56.25
2022-09-22T02:06:31.456Z,55.00
2022-09-22T02:09:07.257Z,54.25
2022-09-22T02:11:37.464Z,58.00
2022-09-22T02:14:08.085Z,52.25
2022-09-22T02:16:38.523Z,56.75
2022-09-22T02:19:20.465Z,57.00
2022-09-22T02:21:51.112Z,58.50
2022-09-22T02:24:29.873Z,49.25
2022-09-22T02:27:00.954Z,55.75
2022-09-22T02:29:32.400Z,51.00
2022-09-22T02:32:04.756Z,52.00
2022-09-22T02:34:34.838Z,51.50
2022-09-22T02:37:07.514Z,53.75
2022-09-22T02:39:55.145Z,50.00
2022-09-22T02:42:31.565Z,49.75
2022-09-22T02:45:04.247Z,47.75
2022-09-22T02:47:53.701Z,47.25
2022-09-22T02:50:25.023Z,35.25
2022-09-22T02:52:59.882Z,35.75
2022-09-22T02:55:29.991Z,24.25
2022-09-22T02:57:59.872Z,22.00
2022-09-22T03:00:29.303Z,27.50
2022-09-22T03:02:58.676Z,21.00
2022-09-22T03:05:28.071Z,23.50
2022-09-22T03:07:57.582Z,19.25
2022-09-22T03:10:27.290Z,24.75
2022-09-22T03:13:15.552Z,18.50
2022-09-22T03:15:47.417Z,19.00
2022-09-22T03:18:17.183Z,20.50
2022-09-22T03:20:47.082Z,22.25
2022-09-22T03:23:16.564Z,16.75
2022-09-22T03:25:45.778Z,17.75
2022-09-22T03:28:15.042Z,20.50
2022-09-22T03:30:44.544Z,16.00
2022-09-22T03:33:14.087Z,17.00
2022-09-22T03:35:44.212Z,16.00
2022-09-22T03:38:13.729Z,17.75
2022-09-22T03:40:43.123Z,26.00
2022-09-22T03:43:16.560Z,16.25
2022-09-22T03:45:46.774Z,23.25
2022-09-22T03:48:16.629Z,18.00
2022-09-22T03:50:46.117Z,14.25
2022-09-22T03:53:15.462Z,17.25
2022-09-22T03:55:44.750Z,16.00
2022-09-22T03:58:14.227Z,16.50
2022-09-22T04:00:43.587Z,17.50
2022-09-22T04:03:15.864Z,16.00
2022-09-22T04:05:50.379Z,16.50
2022-09-22T04:08:20.122Z,13.00
2022-09-22T04:10:49.560Z,14.50
2022-09-22T04:13:19.441Z,16.50
2022-09-22T04:15:48.945Z,17.00
2022-09-22T04:18:18.412Z,14.50
2022-09-22T04:20:50.577Z,16.25
2022-09-22T04:23:19.948Z,14.00
2022-09-22T04:25:49.343Z,16.50
2022-09-22T04:28:18.602Z,15.25
2022-09-22T04:30:49.054Z,14.75
2022-09-22T04:33:18.888Z,14.50
2022-09-22T04:35:50.853Z,14.75
2022-09-22T04:38:20.460Z,13.00
2022-09-22T04:40:50.919Z,14.00
2022-09-22T04:43:20.377Z,13.00
2022-09-22T04:45:51.050Z,16.50
2022-09-22T04:48:22.865Z,14.00
2022-09-22T04:50:52.177Z,13.25
2022-09-22T04:53:21.982Z,16.50
2022-09-22T04:55:51.999Z,14.00
2022-09-22T04:58:21.742Z,17.25
2022-09-22T05:00:51.165Z,14.00
2022-09-22T05:03:22.398Z,16.25
2022-09-22T05:05:52.125Z,14.00
2022-09-22T05:08:21.559Z,14.00
2022-09-22T05:10:51.121Z,13.00
2022-09-22T05:13:20.691Z,15.25
2022-09-22T05:15:50.623Z,16.00
2022-09-22T05:18:20.081Z,17.00
2022-09-22T05:20:49.575Z,14.25
2022-09-22T05:23:19.170Z,14.50
2022-09-22T05:25:48.698Z,16.00
2022-09-22T05:28:18.150Z,14.00
2022-09-22T05:30:48.448Z,14.25
2022-09-22T05:33:20.521Z,16.00
2022-09-22T05:35:52.542Z,16.00
2022-09-22T05:38:22.250Z,14.25
2022-09-22T05:40:51.663Z,14.00
2022-09-22T05:43:21.077Z,14.00
2022-09-22T05:45:51.194Z,15.50
2022-09-22T05:48:20.655Z,16.25
2022-09-22T05:50:50.211Z,14.00
2022-09-22T05:53:19.850Z,16.00
2022-09-22T05:55:49.260Z,15.75
2022-09-22T05:58:18.703Z,15.25
2022-09-22T06:00:48.173Z,13.00
2022-09-22T06:03:17.791Z,15.00
2022-09-22T06:05:47.237Z,14.50
2022-09-22T06:08:16.993Z,13.00
2022-09-22T06:10:52.538Z,16.00
2022-09-22T06:13:22.432Z,14.00
2022-09-22T06:15:52.001Z,13.50
2022-09-22T06:18:24.824Z,16.50
2022-09-22T06:20:57.482Z,13.25
2022-09-22T06:23:27.749Z,14.50
2022-09-22T06:26:00.782Z,15.75
2022-09-22T06:28:30.359Z,14.00
2022-09-22T06:31:03.454Z,15.50
2022-09-22T06:33:33.573Z,16.00
2022-09-22T06:36:03.892Z,17.50
2022-09-22T06:38:33.238Z,17.25
2022-09-22T06:41:04.306Z,14.00
2022-09-22T06:43:36.768Z,14.75
2022-09-22T06:46:06.409Z,13.25
2022-09-22T06:48:36.611Z,15.75
2022-09-22T06:51:06.518Z,17.00
2022-09-22T06:53:35.882Z,16.50
2022-09-22T06:56:07.633Z,19.25
2022-09-22T06:58:58.703Z,17.25
2022-09-22T07:01:26.730Z,13.00
2022-09-22T07:03:56.735Z,14.00
2022-09-22T07:06:27.726Z,12.75
2022-09-22T07:08:57.445Z,16.00
2022-09-22T07:11:27.569Z,17.00
2022-09-22T07:13:56.998Z,24.00
2022-09-22T07:16:27.259Z,15.25
2022-09-22T07:18:57.897Z,13.75
2022-09-22T07:21:39.084Z,13.50
2022-09-22T07:24:11.772Z,20.25
2022-09-22T07:26:41.854Z,28.75
2022-09-22T07:29:17.585Z,18.75
2022-09-22T07:31:47.130Z,15.50
2022-09-22T07:34:17.695Z,18.75
2022-09-22T07:36:47.916Z,14.50
2022-09-22T07:39:17.331Z,15.00
2022-09-22T07:41:48.064Z,14.25
2022-09-22T07:44:37.977Z,16.00
2022-09-22T07:47:09.169Z,19.25
2022-09-22T07:49:38.579Z,22.00
2022-09-22T07:52:07.974Z,17.50
2022-09-22T07:54:38.395Z,15.25
2022-09-22T07:57:10.858Z,13.75
2022-09-22T07:59:42.801Z,16.00
2022-09-22T08:02:12.678Z,12.50
2022-09-22T08:04:42.448Z,13.50
2022-09-22T08:07:11.796Z,14.25
2022-09-22T08:09:41.559Z,14.75
2022-09-22T08:12:11.834Z,13.75
2022-09-22T08:14:41.252Z,14.00
2022-09-22T08:17:13.747Z,15.25
2022-09-22T08:19:43.440Z,15.00
2022-09-22T08:22:13.182Z,14.00
2022-09-22T08:24:46.024Z,12.00
2022-09-22T08:27:15.633Z,14.25
2022-09-22T08:29:45.177Z,15.50
2022-09-22T08:32:18.899Z,16.00
2022-09-22T08:34:48.323Z,19.75
2022-09-22T08:37:17.656Z,15.50
2022-09-22T08:39:47.120Z,12.50
2022-09-22T08:42:20.450Z,17.00
2022-09-22T08:44:52.721Z,14.75
2022-09-22T08:47:43.778Z,17.00
2022-09-22T08:50:44.576Z,16.00
2022-09-22T08:53:16.057Z,18.00
2022-09-22T08:55:49.735Z,20.00
2022-09-22T08:58:48.497Z,22.00
2022-09-22T09:01:18.070Z,12.50
2022-09-22T09:03:48.909Z,13.25
2022-09-22T09:06:42.282Z,14.50
2022-09-22T09:09:18.678Z,14.25
2022-09-22T09:11:48.605Z,15.00
2022-09-22T09:14:36.438Z,16.00
2022-09-22T09:17:10.716Z,14.50
2022-09-22T09:19:49.719Z,19.00
2022-09-22T09:22:28.980Z,19.00
2022-09-22T09:25:27.286Z,14.25
2022-09-22T09:28:03.107Z,16.00
2022-09-22T09:30:42.811Z,13.25
2022-09-22T09:33:24.793Z,15.50
2022-09-22T09:35:54.866Z,20.00
2022-09-22T09:38:33.006Z,12.50
2022-09-22T09:41:22.786Z,15.50
2022-09-22T09:43:53.841Z,20.75
2022-09-22T09:46:35.652Z,15.25
2022-09-22T09:49:05.051Z,16.25
2022-09-22T09:51:40.390Z,17.00
2022-09-22T09:54:14.534Z,13.00
2022-09-22T09:57:06.305Z,23.25
2022-09-22T09:59:54.785Z,18.00
2022-09-22T10:02:29.875Z,18.00
2022-09-22T10:05:02.653Z,13.00
2022-09-22T10:07:33.643Z,23.00
2022-09-22T10:10:21.120Z,19.75
2022-09-22T10:12:51.865Z,18.25
2022-09-22T10:15:28.229Z,12.50
2022-09-22T10:17:57.662Z,15.75
2022-09-22T10:20:32.767Z,14.75
2022-09-22T10:23:21.527Z,13.00
2022-09-22T10:25:54.324Z,16.00
2022-09-22T10:28:23.747Z,20.75
2022-09-22T10:31:08.315Z,18.00
2022-09-22T10:33:43.148Z,19.50
2022-09-22T10:36:13.844Z,25.00
2022-09-22T10:38:44.248Z,18.00
2022-09-22T10:41:19.420Z,14.00
2022-09-22T10:44:00.385Z,13.50
2022-09-22T10:46:51.243Z,14.00
2022-09-22T10:49:33.098Z,15.00
2022-09-22T10:52:22.431Z,13.75
2022-09-22T10:55:00.779Z,18.50
2022-09-22T10:57:48.309Z,16.50
2022-09-22T11:00:18.653Z,19.25
2022-09-22T11:03:03.247Z,16.00
2022-09-22T11:05:59.244Z,18.50
2022-09-22T11:08:47.054Z,15.50
2022-09-22T11:11:55.226Z,16.50
2022-09-22T11:14:34.079Z,11.25
2022-09-22T11:17:23.457Z,14.25
2022-09-22T11:20:08.111Z,15.75
2022-09-22T11:22:49.064Z,14.75
2022-09-22T11:25:26.462Z,17.00
2022-09-22T11:28:02.465Z,13.25
2022-09-22T11:30:46.236Z,12.00
2022-09-22T11:33:34.150Z,17.00
2022-09-22T11:36:09.819Z,14.75
2022-09-22T11:38:45.581Z,16.00
2022-09-22T11:41:24.553Z,15.25
2022-09-22T11:44:12.495Z,15.75
2022-09-22T11:47:00.764Z,21.50
2022-09-22T11:49:48.929Z,18.00
2022-09-22T11:52:30.932Z,13.00
2022-09-22T11:55:03.918Z,20.00
2022-09-22T11:57:37.860Z,14.00
2022-09-22T12:00:18.734Z,21.25
2022-09-22T12:03:02.109Z,19.00
2022-09-22T12:05:36.701Z,13.75
2022-09-22T12:08:06.716Z,19.50
2022-09-22T12:10:40.420Z,16.50
2022-09-22T12:13:17.004Z,17.75
2022-09-22T12:18:38.938Z,21.75
2022-09-22T12:21:30.084Z,22.50
2022-09-22T12:24:04.599Z,15.75
2022-09-22T12:26:36.166Z,21.00
2022-09-22T12:29:22.255Z,26.50
2022-09-22T12:31:53.654Z,13.50
2022-09-22T12:34:43.257Z,20.25
2022-09-22T12:37:14.112Z,22.50
2022-09-22T12:39:45.488Z,19.75
2022-09-22T12:42:24.741Z,26.50
2022-09-22T12:45:14.615Z,19.75
2022-09-22T12:47:44.589Z,23.00
2022-09-22T12:50:26.484Z,23.25
2022-09-22T12:52:56.768Z,18.00
2022-09-22T12:55:39.728Z,23.50
2022-09-22T12:58:28.085Z,19.00
2022-09-22T13:01:15.019Z,18.00
2022-09-22T13:03:52.393Z,18.75
2022-09-22T13:06:21.919Z,16.50
2022-09-22T13:09:11.041Z,27.00
2022-09-22T13:12:03.811Z,21.00
2022-09-22T13:14:51.868Z,17.00
2022-09-22T13:17:39.493Z,16.25
2022-09-22T13:20:17.564Z,18.00
2022-09-22T13:22:46.902Z,18.25
2022-09-22T13:25:27.497Z,18.50
2022-09-22T13:28:07.790Z,12.75
2022-09-22T13:30:39.062Z,21.00
2022-09-22T13:33:19.730Z,18.00
2022-09-22T13:35:53.586Z,16.00
2022-09-22T13:38:23.703Z,17.00
2022-09-22T13:40:54.535Z,20.00
2022-09-22T13:43:30.429Z,18.75
2022-09-22T13:46:01.035Z,21.75
2022-09-22T13:48:35.597Z,15.75
2022-09-22T13:51:10.280Z,11.50
2022-09-22T13:53:42.196Z,12.75
2022-09-22T13:56:21.420Z,13.00
2022-09-22T13:58:52.814Z,14.00
2022-09-22T14:01:23.971Z,14.50
2022-09-22T14:03:54.466Z,12.50
2022-09-22T14:06:24.335Z,14.75
2022-09-22T14:08:55.770Z,15.00
2022-09-22T14:11:27.420Z,13.00
2022-09-22T14:13:58.117Z,18.00
2022-09-22T14:16:51.020Z,12.00
2022-09-22T14:19:34.693Z,15.25
2022-09-22T14:22:12.467Z,12.50
2022-09-22T14:24:47.230Z,13.00
2022-09-22T14:27:25.283Z,11.00
2022-09-22T14:29:57.168Z,11.00
2022-09-22T14:32:35.578Z,15.00
2022-09-22T14:35:08.820Z,14.50
2022-09-22T14:37:43.871Z,16.00
2022-09-22T14:40:32.747Z,12.25
2022-09-22T14:43:21.520Z,13.50
2022-09-22T14:46:09.457Z,11.25
2022-09-22T14:48:39.697Z,14.00
2022-09-22T14:51:16.900Z,11.75
2022-09-22T14:53:50.263Z,12.00
2022-09-22T14:56:29.244Z,13.50
2022-09-22T14:59:01.309Z,16.50
2022-09-22T15:01:51.460Z,16.25
2022-09-22T15:04:27.871Z,13.25
2022-09-22T15:06:59.193Z,13.75
2022-09-22T15:09:30.198Z,10.75
2022-09-22T15:12:05.070Z,16.25
2022-09-22T15:14:35.021Z,12.00
2022-09-22T15:17:23.655Z,13.25
2022-09-22T15:19:57.825Z,12.00
2022-09-22T15:22:29.100Z,11.00
2022-09-22T15:24:59.185Z,14.00
2022-09-22T15:27:30.538Z,11.75
2022-09-22T15:30:00.930Z,11.00
2022-09-22T15:32:30.373Z,13.00
2022-09-22T15:35:00.140Z,14.50
2022-09-22T15:37:29.626Z,12.00
2022-09-22T15:40:02.230Z,14.50
2022-09-22T15:42:32.212Z,12.00
2022-09-22T15:45:01.770Z,12.25
2022-09-22T15:47:31.300Z,13.00
2022-09-22T15:50:01.954Z,17.00
2022-09-22T15:52:32.757Z,11.25
2022-09-22T15:55:02.199Z,11.00
2022-09-22T15:57:32.561Z,13.75
2022-09-22T16:00:02.890Z,13.00
2022-09-22T16:02:42.098Z,11.25
2022-09-22T16:05:13.935Z,11.75
2022-09-22T16:07:44.863Z,13.00
2022-09-22T16:10:18.884Z,13.50
2022-09-22T16:12:48.882Z,11.00
2022-09-22T16:15:18.467Z,11.00
2022-09-22T16:17:48.119Z,11.00
2022-09-22T16:20:18.909Z,11.50
2022-09-22T16:22:49.274Z,11.00
2022-09-22T16:25:20.229Z,11.00
2022-09-22T16:27:49.525Z,11.75
2022-09-22T16:30:25.230Z,12.00
2022-09-22T16:32:56.088Z,11.00
2022-09-22T16:35:25.908Z,11.00
2022-09-22T16:37:57.098Z,14.00
2022-09-22T16:40:28.211Z,12.00
2022-09-22T16:42:59.854Z,11.00
2022-09-22T16:45:48.352Z,15.75
2022-09-22T16:48:18.650Z,12.00
2022-09-22T16:50:50.105Z,12.50
2022-09-22T16:53:19.400Z,18.00
2022-09-22T16:55:51.761Z,11.50
2022-09-22T16:58:21.497Z,11.50
2022-09-22T17:00:50.856Z,11.00
2022-09-22T17:03:20.350Z,13.75
2022-09-22T17:05:49.696Z,16.00
2022-09-22T17:08:21.201Z,12.25
2022-09-22T17:10:51.635Z,13.00
2022-09-22T17:13:21.713Z,11.00
2022-09-22T17:15:51.394Z,13.50
2022-09-22T17:18:20.919Z,11.00
2022-09-22T17:20:50.556Z,11.00
2022-09-22T17:23:20.698Z,12.00
2022-09-22T17:25:50.119Z,12.00
2022-09-22T17:28:19.412Z,12.00
2022-09-22T17:30:58.694Z,12.00
2022-09-22T17:33:32.520Z,11.25
2022-09-22T17:36:02.867Z,11.25
2022-09-22T17:38:36.557Z,14.00
2022-09-22T17:41:09.528Z,12.00
2022-09-22T17:43:44.024Z,12.25
2022-09-22T17:46:18.120Z,12.00
2022-09-22T17:49:05.668Z,11.00
2022-09-22T17:52:00.387Z,12.50
2022-09-22T17:54:49.697Z,12.00
2022-09-22T17:57:23.567Z,14.25
2022-09-22T17:59:53.515Z,12.00
2022-09-22T18:02:22.878Z,12.75
2022-09-22T18:04:52.378Z,12.00
2022-09-22T18:07:23.037Z,11.50
2022-09-22T18:09:53.174Z,16.00
2022-09-22T18:12:26.777Z,11.25
2022-09-22T18:14:57.012Z,12.50
2022-09-22T18:17:28.622Z,13.50
2022-09-22T18:19:58.464Z,14.00
2022-09-22T18:22:28.604Z,13.00
2022-09-22T18:24:59.688Z,14.00
2022-09-22T18:27:29.039Z,11.25
2022-09-22T18:30:01.160Z,11.00
2022-09-22T18:32:30.530Z,12.25
2022-09-22T18:34:59.947Z,11.00
2022-09-22T18:37:29.428Z,12.00
2022-09-22T18:39:58.887Z,11.75
2022-09-22T18:42:28.990Z,12.00
2022-09-22T18:44:58.319Z,12.00
2022-09-22T18:47:27.779Z,12.00
2022-09-22T18:49:58.146Z,14.25
2022-09-22T18:52:27.522Z,12.00
2022-09-22T18:54:57.435Z,12.25
2022-09-22T18:57:30.098Z,12.00
2022-09-22T19:00:02.634Z,11.50
2022-09-22T19:02:32.553Z,12.00
2022-09-22T19:05:06.133Z,12.75
2022-09-22T19:07:43.247Z,12.00
2022-09-22T19:10:15.935Z,12.75
2022-09-22T19:12:46.412Z,11.00
2022-09-22T19:15:17.850Z,12.00
2022-09-22T19:17:48.768Z,12.00
2022-09-22T19:20:19.671Z,13.00
2022-09-22T19:22:50.756Z,12.00
2022-09-22T19:25:23.312Z,12.75
2022-09-22T19:27:53.999Z,12.50
2022-09-22T19:30:27.547Z,13.00
2022-09-22T19:33:00.723Z,12.00
2022-09-22T19:35:31.086Z,14.75
2022-09-22T19:38:01.042Z,11.25
2022-09-22T19:40:30.404Z,12.00
2022-09-22T19:43:00.577Z,13.50
2022-09-22T19:45:30.598Z,12.00
2022-09-22T19:47:59.989Z,12.00
2022-09-22T19:50:29.343Z,12.00
2022-09-22T19:52:58.595Z,13.00
2022-09-22T19:55:28.150Z,12.00
2022-09-22T19:57:57.661Z,12.75
2022-09-22T20:00:31.677Z,11.00
2022-09-22T20:03:02.060Z,12.50
2022-09-22T20:05:38.623Z,12.00
2022-09-22T20:08:16.875Z,11.75
2022-09-22T20:10:48.338Z,13.50
2022-09-22T20:13:35.712Z,11.25
2022-09-22T20:16:05.620Z,12.00
2022-09-22T20:18:40.643Z,14.75
2022-09-22T20:21:15.280Z,11.50
2022-09-22T20:23:44.795Z,12.00
2022-09-22T20:26:14.196Z,13.50
2022-09-22T20:28:45.759Z,12.00
2022-09-22T20:31:15.182Z,16.00
2022-09-22T20:33:44.631Z,14.00
2022-09-22T20:36:19.278Z,12.00
2022-09-22T20:38:48.782Z,16.00
2022-09-22T20:41:23.250Z,13.00
2022-09-22T20:43:56.269Z,12.50
2022-09-22T20:46:26.077Z,11.75
2022-09-22T20:48:56.795Z,12.25
2022-09-22T20:51:26.343Z,15.50
2022-09-22T20:53:55.863Z,12.50
2022-09-22T20:56:25.356Z,13.75
2022-09-22T20:58:54.812Z,12.00
2022-09-22T21:01:24.180Z,12.00
2022-09-22T21:03:53.606Z,11.75
2022-09-22T21:06:23.815Z,11.25
2022-09-22T21:09:11.412Z,12.00
2022-09-22T21:11:41.087Z,11.75
2022-09-22T21:14:11.194Z,12.00
2022-09-22T21:16:40.768Z,12.00
2022-09-22T21:19:10.232Z,12.25
2022-09-22T21:21:39.682Z,13.00
2022-09-22T21:24:09.512Z,15.50
2022-09-22T21:26:39.068Z,14.50
2022-09-22T21:29:08.540Z,11.00
2022-09-22T21:31:41.003Z,14.75
2022-09-22T21:34:10.864Z,12.75
2022-09-22T21:36:40.277Z,14.00
2022-09-22T21:39:09.709Z,12.00
2022-09-22T21:41:39.137Z,11.00
2022-09-22T21:44:08.789Z,13.50
2022-09-22T21:46:43.344Z,11.50
2022-09-22T21:49:12.929Z,12.75
2022-09-22T21:51:44.459Z,12.00
2022-09-22T21:54:15.924Z,12.00
2022-09-22T21:56:45.715Z,12.50
2022-09-22T21:59:15.898Z,14.00
2022-09-22T22:01:46.344Z,16.00
2022-09-22T22:04:16.249Z,16.25
2022-09-22T22:06:46.983Z,12.25
2022-09-22T22:09:23.474Z,11.00
2022-09-22T22:11:54.499Z,12.00
2022-09-22T22:14:24.818Z,12.25
2022-09-22T22:16:55.211Z,12.00
2022-09-22T22:19:27.172Z,12.00
2022-09-22T22:21:56.652Z,12.25
2022-09-22T22:24:29.590Z,13.00
2022-09-22T22:27:02.615Z,14.00
2022-09-22T22:29:33.051Z,14.50
2022-09-22T22:32:04.088Z,17.00
2022-09-22T22:34:33.890Z,21.50
2022-09-22T22:37:05.489Z,13.50
2022-09-22T22:39:35.000Z,17.50
2022-09-22T22:42:04.573Z,26.50
2022-09-22T22:44:34.779Z,17.00
2022-09-22T22:47:04.336Z,13.00
2022-09-22T22:49:34.134Z,13.75
2022-09-22T22:52:03.730Z,14.25
2022-09-22T22:54:33.504Z,17.00
2022-09-22T22:57:03.678Z,18.00
2022-09-22T22:59:33.202Z,16.50
2022-09-22T23:02:03.191Z,13.50
2022-09-22T23:04:32.700Z,13.00
2022-09-22T23:07:02.413Z,14.25
2022-09-22T23:09:31.971Z,13.50
2022-09-22T23:12:01.442Z,17.25
2022-09-22T23:14:31.367Z,19.00
2022-09-22T23:17:00.878Z,16.00
2022-09-22T23:19:30.345Z,16.00
2022-09-22T23:22:00.518Z,16.50
2022-09-22T23:24:30.032Z,20.75
2022-09-22T23:26:59.859Z,17.50
2022-09-22T23:29:29.309Z,13.00
2022-09-22T23:31:58.621Z,21.00
2022-09-22T23:34:28.651Z,13.00
2022-09-22T23:36:58.390Z,16.50
2022-09-22T23:39:27.730Z,13.50
2022-09-22T23:41:57.167Z,12.00
2022-09-22T23:44:26.989Z,18.25
2022-09-22T23:46:56.444Z,14.00
2022-09-22T23:49:26.354Z,12.00
2022-09-22T23:51:55.860Z,12.00
2022-09-22T23:54:25.417Z,13.25
2022-09-22T23:56:54.886Z,13.75
2022-09-22T23:59:24.357Z,12.00
